Arties, Catalunya

latitud = 42° 42' 01''N | longitud = 00° 52' 37''E
1161 metros sobre el nivel del mar | datos mensuales

Fecha, hora, temperatura, viento dirección y velocidad, humedad y presión.

  • 21-01-2018 02:00:00 | 8.60°C | Sudoeste |11.00 km/h | 76.00% | 0.00 hPa
  • 21-01-2018 01:00:00 | 7.80°C | Sudoeste |8.00 km/h | 84.00% | 0.00 hPa
  • 21-01-2018 00:00:00 | 7.80°C | Sudoeste |9.00 km/h | 85.00% | 0.00 hPa
  • 20-01-2018 23:00:00 | 7.60°C | Sudoeste |8.00 km/h | 87.00% | 0.00 hPa
  • 20-01-2018 22:00:00 | 6.20°C | Calma |0.00 km/h | 94.00% | 0.00 hPa
  • 20-01-2018 21:00:00 | 6.50°C | Sudoeste |4.00 km/h | 95.00% | 0.00 hPa
  • 20-01-2018 20:00:00 | 6.60°C | Nordeste |4.00 km/h | 95.00% | 0.00 hPa
  • 20-01-2018 19:00:00 | 6.40°C | Nordeste |6.00 km/h | 95.00% | 0.00 hPa
  • 20-01-2018 18:00:00 | 6.00°C | Nordeste |5.00 km/h | 95.00% | 0.00 hPa
  • 20-01-2018 17:00:00 | 6.70°C | Nordeste |5.00 km/h | 93.00% | 0.00 hPa
  • 20-01-2018 16:00:00 | 7.10°C | Nordeste |4.00 km/h | 91.00% | 0.00 hPa
  • 20-01-2018 15:00:00 | 6.60°C | Nordeste |9.00 km/h | 90.00% | 0.00 hPa
  • 20-01-2018 14:00:00 | 6.80°C | Nordeste |10.00 km/h | 87.00% | 0.00 hPa
  • 20-01-2018 13:00:00 | 7.50°C | Nordeste |5.00 km/h | 75.00% | 0.00 hPa
  • 20-01-2018 12:00:00 | 6.70°C | Este |5.00 km/h | 75.00% | 0.00 hPa
  • 20-01-2018 11:00:00 | 4.80°C | Calma |0.00 km/h | 74.00% | 0.00 hPa
  • 20-01-2018 10:00:00 | 3.80°C | Sudeste |4.00 km/h | 71.00% | 0.00 hPa
  • 20-01-2018 09:00:00 | 1.30°C | Este |2.00 km/h | 82.00% | 0.00 hPa
  • 20-01-2018 08:00:00 | 0.90°C | Nordeste |5.00 km/h | 84.00% | 0.00 hPa
  • 20-01-2018 07:00:00 | 0.00°C | Este |9.00 km/h | 85.00% | 0.00 hPa
  • 20-01-2018 06:00:00 | -0.20°C | Este |6.00 km/h | 93.00% | 0.00 hPa
  • 20-01-2018 05:00:00 | -0.60°C | Este |2.00 km/h | 94.00% | 0.00 hPa
  • 20-01-2018 04:00:00 | 0.30°C | Este |4.00 km/h | 93.00% | 0.00 hPa
  • 20-01-2018 03:00:00 | 1.70°C | Calma |0.00 km/h | 91.00% | 0.00 hPa